Time;durP1;ratioP1;P1;durP2;ratioP2;P2;SDS_P1;SDS_P2;PMS_P1;PMS_P2;Temp;Humidity;BMP_temperature;BMP_pressure;BME280_temperature;BME280_humidity;BME280_pressure;Samples;Min_cycle;Max_cycle;Signal;HPM_P1;HPM_P2
2024/04/20 00:02:12;;;;;;;3.93;1.20;;;11.90;95.40;;;;;;5474798;25;20474;-48
2024/04/20 00:04:42;;;;;;;2.50;1.00;;;11.90;95.40;;;;;;5470621;26;20458;-51
2024/04/20 00:07:15;;;;;;;2.10;0.77;;;11.80;95.30;;;;;;5471704;26;20521;-48
2024/04/20 00:09:45;;;;;;;1.83;1.00;;;11.80;95.40;;;;;;5470028;26;20463;-47
2024/04/20 00:12:15;;;;;;;2.30;0.83;;;11.80;95.40;;;;;;5469738;26;20547;-48
2024/04/20 00:14:45;;;;;;;1.20;0.67;;;11.80;95.40;;;;;;5466836;26;20569;-48
2024/04/20 00:17:15;;;;;;;1.57;1.07;;;11.80;95.40;;;;;;5444875;26;21132;-47
2024/04/20 00:19:46;;;;;;;3.53;1.40;;;11.80;95.20;;;;;;5477637;26;20522;-49
2024/04/20 00:22:18;;;;;;;1.70;1.00;;;11.80;95.30;;;;;;5464384;26;20468;-50
2024/04/20 00:24:50;;;;;;;1.67;0.80;;;11.80;95.30;;;;;;5463434;26;20559;-48
2024/04/20 00:27:21;;;;;;;2.20;1.13;;;11.80;95.20;;;;;;5473112;26;20502;-48
2024/04/20 00:29:51;;;;;;;2.20;1.10;;;11.80;95.30;;;;;;5466166;26;20576;-48
2024/04/20 00:32:21;;;;;;;2.90;0.90;;;11.80;95.30;;;;;;5469324;26;20559;-48
2024/04/20 00:34:50;;;;;;;2.20;1.00;;;11.80;95.30;;;;;;5476232;26;20884;-47
2024/04/20 00:37:23;;;;;;;1.70;1.20;;;11.80;95.30;;;;;;5466490;26;20509;-48
2024/04/20 00:39:53;;;;;;;3.20;1.10;;;11.80;95.30;;;;;;5461280;26;20588;-48
2024/04/20 00:42:23;;;;;;;2.40;1.10;;;11.80;95.40;;;;;;5464825;26;20461;-50
2024/04/20 00:44:54;;;;;;;2.33;1.20;;;11.80;95.50;;;;;;5459856;26;20512;-47
2024/04/20 00:47:24;;;;;;;1.87;1.00;;;11.80;95.40;;;;;;5469292;26;20516;-48
2024/04/20 00:49:54;;;;;;;3.90;0.97;;;11.80;95.40;;;;;;5474302;26;20566;-49
2024/04/20 00:52:27;;;;;;;2.80;1.20;;;11.80;95.50;;;;;;5438451;26;20477;-47
2024/04/20 00:54:57;;;;;;;2.30;1.10;;;11.80;95.50;;;;;;5468552;26;20463;-48
2024/04/20 00:57:30;;;;;;;1.50;0.83;;;11.80;95.40;;;;;;5466887;26;20575;-48
2024/04/20 01:00:00;;;;;;;1.73;0.67;;;11.80;95.40;;;;;;5462130;26;20528;-47
2024/04/20 01:02:31;;;;;;;3.00;1.43;;;11.80;95.40;;;;;;5471776;26;20486;-47
2024/04/20 01:05:01;;;;;;;5.33;1.20;;;11.80;95.40;;;;;;5458005;26;20454;-48
2024/04/20 01:07:34;;;;;;;2.93;1.20;;;11.70;95.60;;;;;;5468531;26;20807;-47
2024/04/20 01:10:04;;;;;;;1.50;1.00;;;11.70;95.40;;;;;;5462080;26;20799;-49
2024/04/20 01:12:35;;;;;;;2.40;1.33;;;11.70;95.40;;;;;;5462236;26;20444;-47
2024/04/20 01:15:05;;;;;;;1.30;0.83;;;11.70;95.40;;;;;;5467245;26;20454;-47
2024/04/20 01:17:35;;;;;;;1.80;1.10;;;11.70;95.30;;;;;;5473038;26;20504;-49
2024/04/20 01:20:09;;;;;;;2.07;1.10;;;11.70;95.40;;;;;;5470338;26;20522;-48
2024/04/20 01:22:43;;;;;;;1.53;1.00;;;11.70;95.40;;;;;;5467824;26;20874;-47
2024/04/20 01:25:13;;;;;;;1.90;1.20;;;11.70;95.40;;;;;;5476031;26;20512;-49
2024/04/20 01:27:46;;;;;;;3.00;0.80;;;11.70;95.40;;;;;;5471866;26;20458;-47
2024/04/20 01:30:17;;;;;;;2.97;1.33;;;11.70;95.40;;;;;;5465054;26;20518;-47
2024/04/20 01:32:47;;;;;;;1.90;1.10;;;11.70;95.40;;;;;;5471772;26;20509;-48
2024/04/20 01:35:18;;;;;;;2.27;1.03;;;11.70;95.50;;;;;;5474450;26;20470;-49
2024/04/20 01:37:49;;;;;;;3.60;0.90;;;11.70;95.40;;;;;;5432320;26;20459;-47
2024/04/20 01:40:19;;;;;;;1.90;1.13;;;11.70;95.50;;;;;;5464480;26;20525;-47
2024/04/20 01:42:51;;;;;;;2.30;1.00;;;11.70;95.40;;;;;;5469626;26;20784;-47
2024/04/20 01:45:21;;;;;;;1.70;1.00;;;11.70;95.30;;;;;;5464344;26;20457;-49
2024/04/20 01:47:51;;;;;;;2.37;1.30;;;11.70;95.30;;;;;;5471714;26;20461;-49
2024/04/20 01:50:23;;;;;;;2.60;1.10;;;11.70;95.40;;;;;;5467144;26;21111;-47
2024/04/20 01:52:52;;;;;;;2.50;0.80;;;11.70;95.40;;;;;;5470996;26;20470;-47
2024/04/20 01:55:22;;;;;;;1.63;0.90;;;11.70;95.40;;;;;;5475398;26;20510;-47
2024/04/20 01:57:57;;;;;;;1.27;1.00;;;11.70;95.40;;;;;;5475191;26;20861;-48
2024/04/20 02:00:27;;;;;;;1.83;0.90;;;11.70;95.50;;;;;;5471723;26;20859;-49
2024/04/20 02:02:57;;;;;;;1.73;0.97;;;11.70;95.50;;;;;;5470091;26;20451;-48
2024/04/20 02:05:27;;;;;;;2.40;1.10;;;11.70;95.50;;;;;;5464153;26;20919;-47
2024/04/20 02:07:57;;;;;;;2.37;0.90;;;11.70;95.40;;;;;;5461948;25;20516;-47
2024/04/20 02:10:27;;;;;;;3.50;1.30;;;11.70;95.40;;;;;;5469500;26;20469;-48
2024/04/20 02:13:02;;;;;;;1.10;0.60;;;11.70;95.50;;;;;;5466971;26;20481;-47
2024/04/20 02:15:32;;;;;;;1.70;0.80;;;11.70;95.40;;;;;;5464304;26;20521;-49
2024/04/20 02:18:02;;;;;;;1.50;1.00;;;11.70;95.50;;;;;;5466338;26;20501;-48
2024/04/20 02:20:32;;;;;;;1.10;0.80;;;11.70;95.60;;;;;;5453027;26;20803;-48
2024/04/20 02:23:02;;;;;;;2.50;0.90;;;11.70;95.50;;;;;;5473974;26;20468;-47
2024/04/20 02:25:32;;;;;;;1.60;1.00;;;11.60;95.60;;;;;;5462654;26;20471;-47
2024/04/20 02:28:05;;;;;;;1.87;1.00;;;11.60;95.60;;;;;;5470334;26;20806;-49
2024/04/20 02:30:35;;;;;;;2.40;0.97;;;11.60;95.60;;;;;;5456870;26;20545;-46
2024/04/20 02:33:05;;;;;;;3.73;1.10;;;11.60;95.60;;;;;;5465017;26;21006;-48
2024/04/20 02:35:40;;;;;;;1.63;0.73;;;11.60;95.50;;;;;;5441809;26;20509;-48
2024/04/20 02:38:11;;;;;;;3.27;0.90;;;11.60;95.60;;;;;;5470791;26;20526;-48
2024/04/20 02:40:40;;;;;;;3.20;0.80;;;11.60;95.70;;;;;;5466379;26;20497;-48
2024/04/20 02:43:13;;;;;;;1.20;0.70;;;11.60;95.70;;;;;;5469135;26;21068;-47
2024/04/20 02:45:43;;;;;;;1.10;0.67;;;11.60;95.60;;;;;;5465454;26;20535;-47
2024/04/20 02:48:12;;;;;;;2.60;0.90;;;11.60;95.70;;;;;;5475596;26;20541;-48
2024/04/20 02:50:42;;;;;;;2.37;0.80;;;11.60;95.60;;;;;;5467137;26;20462;-47
2024/04/20 02:53:13;;;;;;;1.33;0.70;;;11.60;95.60;;;;;;5472548;26;20473;-49
2024/04/20 02:55:42;;;;;;;2.03;0.60;;;11.60;95.70;;;;;;5478087;26;20464;-48
2024/04/20 02:58:15;;;;;;;1.10;0.60;;;11.60;95.80;;;;;;5478149;26;20619;-48
2024/04/20 03:00:56;;;;;;;2.47;0.97;;;11.60;95.70;;;;;;5466988;26;20462;-48
2024/04/20 03:03:27;;;;;;;3.10;0.90;;;11.60;95.70;;;;;;5479695;26;20445;-48
2024/04/20 03:05:58;;;;;;;1.07;0.70;;;11.60;95.80;;;;;;5470851;26;20893;-48
2024/04/20 03:08:28;;;;;;;1.77;0.90;;;11.60;95.80;;;;;;5472002;26;21063;-48
2024/04/20 03:10:57;;;;;;;2.17;0.93;;;11.50;95.70;;;;;;5467182;26;20477;-48
2024/04/20 03:13:30;;;;;;;2.33;1.10;;;11.60;95.90;;;;;;5461438;26;20465;-50
2024/04/20 03:16:02;;;;;;;1.73;1.07;;;11.60;95.80;;;;;;5476296;26;20521;-47
2024/04/20 03:18:35;;;;;;;1.93;0.80;;;11.60;95.90;;;;;;5465662;26;20458;-48
2024/04/20 03:21:05;;;;;;;1.23;0.80;;;11.60;95.90;;;;;;5471039;26;20463;-52
2024/04/20 03:23:33;;;;;;;2.07;0.80;;;11.50;95.90;;;;;;5471289;26;20536;-48
2024/04/20 03:26:03;;;;;;;1.10;0.73;;;11.50;95.90;;;;;;5476163;26;20863;-49
2024/04/20 03:28:35;;;;;;;1.50;1.03;;;11.50;95.90;;;;;;5476797;26;20552;-51
2024/04/20 03:31:06;;;;;;;1.53;0.67;;;11.50;95.90;;;;;;5470578;26;20472;-48
2024/04/20 03:33:36;;;;;;;2.17;1.10;;;11.50;95.90;;;;;;5466799;26;20455;-47
2024/04/20 03:36:06;;;;;;;1.50;0.80;;;11.50;96.40;;;;;;5463465;26;20517;-48
2024/04/20 03:38:36;;;;;;;2.03;0.83;;;11.50;95.90;;;;;;5472074;26;20517;-50
2024/04/20 03:41:07;;;;;;;2.50;0.80;;;11.50;96.10;;;;;;5475478;26;20454;-48
2024/04/20 03:43:40;;;;;;;3.00;0.83;;;11.50;96.00;;;;;;5473793;26;20578;-48
2024/04/20 03:46:07;;;;;;;2.37;0.80;;;11.50;96.60;;;;;;5472510;26;20508;-48
2024/04/20 03:48:37;;;;;;;1.60;1.03;;;11.50;96.20;;;;;;5460129;26;21030;-50
2024/04/20 03:51:08;;;;;;;2.63;1.07;;;11.50;96.70;;;;;;5467842;26;20953;-50
2024/04/20 03:53:38;;;;;;;1.47;0.70;;;11.50;96.10;;;;;;5476377;26;20582;-48
2024/04/20 03:56:08;;;;;;;2.03;0.80;;;11.50;96.20;;;;;;5462777;26;20468;-48
2024/04/20 03:58:41;;;;;;;1.57;1.10;;;11.50;96.30;;;;;;5474562;26;20459;-47
2024/04/20 04:01:10;;;;;;;1.10;0.60;;;11.50;96.30;;;;;;5471358;26;20470;-48
2024/04/20 04:03:41;;;;;;;1.40;0.80;;;11.50;96.30;;;;;;5471753;26;20452;-48
2024/04/20 04:06:12;;;;;;;3.70;0.70;;;11.50;96.30;;;;;;5431132;26;20461;-49
2024/04/20 04:08:41;;;;;;;1.50;1.20;;;11.50;96.30;;;;;;5469065;26;20457;-50
2024/04/20 04:11:12;;;;;;;2.70;0.90;;;11.40;96.30;;;;;;5477335;26;20467;-49
2024/04/20 04:13:45;;;;;;;2.20;0.90;;;11.40;96.20;;;;;;5469109;25;20578;-48
2024/04/20 04:16:15;;;;;;;2.20;0.90;;;11.40;96.20;;;;;;5437574;26;20886;-47
2024/04/20 04:18:45;;;;;;;1.60;1.00;;;11.40;96.30;;;;;;5477754;26;20510;-48
2024/04/20 04:21:16;;;;;;;1.33;0.80;;;11.40;96.40;;;;;;5467124;26;20461;-48
2024/04/20 04:23:46;;;;;;;1.40;0.90;;;11.40;96.40;;;;;;5461703;26;21019;-48
2024/04/20 04:26:16;;;;;;;1.40;0.80;;;11.40;96.40;;;;;;5474322;26;20455;-48
2024/04/20 04:28:48;;;;;;;1.57;0.67;;;11.40;96.40;;;;;;5471240;26;20494;-47
2024/04/20 04:31:19;;;;;;;1.43;1.10;;;11.40;96.50;;;;;;5470908;26;20862;-47
2024/04/20 04:33:50;;;;;;;2.00;0.83;;;11.40;96.50;;;;;;5461920;26;20931;-47
2024/04/20 04:36:20;;;;;;;1.40;0.80;;;11.40;96.50;;;;;;5475015;26;20463;-47
2024/04/20 04:38:50;;;;;;;1.70;1.10;;;11.40;96.60;;;;;;5466215;26;20448;-49
2024/04/20 04:41:21;;;;;;;1.60;1.00;;;11.40;96.50;;;;;;5468376;26;20548;-48
2024/04/20 04:43:54;;;;;;;1.57;1.00;;;11.40;96.50;;;;;;5446553;26;20460;-48
2024/04/20 04:46:24;;;;;;;1.63;1.23;;;11.40;96.50;;;;;;5455691;26;20465;-48
2024/04/20 04:48:55;;;;;;;2.17;0.80;;;11.40;96.60;;;;;;5459191;26;20470;-49
2024/04/20 04:51:25;;;;;;;2.40;0.70;;;11.40;96.60;;;;;;5467887;26;20517;-47
2024/04/20 04:53:56;;;;;;;4.07;0.90;;;11.40;96.70;;;;;;5474984;26;20557;-47
2024/04/20 04:56:26;;;;;;;1.60;0.90;;;11.40;96.70;;;;;;5462626;26;20893;-47
2024/04/20 04:59:00;;;;;;;2.23;0.53;;;11.40;96.80;;;;;;5470923;26;20570;-48
2024/04/20 05:01:30;;;;;;;1.50;0.80;;;11.40;96.80;;;;;;5470320;26;20868;-49
2024/04/20 05:04:01;;;;;;;1.30;0.67;;;11.40;96.90;;;;;;5441308;26;20445;-48
2024/04/20 05:06:31;;;;;;;1.23;0.70;;;11.40;96.80;;;;;;5469776;26;20513;-49
2024/04/20 05:09:02;;;;;;;2.60;0.70;;;11.40;96.90;;;;;;5477115;26;21062;-47
2024/04/20 05:11:32;;;;;;;1.80;0.63;;;11.30;97.30;;;;;;5468165;26;20570;-46
2024/04/20 05:14:06;;;;;;;2.23;0.80;;;11.40;97.00;;;;;;5454859;26;21036;-50
2024/04/20 05:16:36;;;;;;;1.40;0.77;;;11.30;97.10;;;;;;5460465;26;20464;-47
2024/04/20 05:19:07;;;;;;;2.53;1.10;;;11.40;97.00;;;;;;5476771;26;20531;-47
2024/04/20 05:21:37;;;;;;;1.10;0.60;;;11.40;97.20;;;;;;5468525;26;20515;-48
2024/04/20 05:24:08;;;;;;;1.53;0.80;;;11.40;97.20;;;;;;5470407;26;20528;-50
2024/04/20 05:26:39;;;;;;;2.00;0.90;;;11.30;97.20;;;;;;5455793;26;20831;-46
2024/04/20 05:29:12;;;;;;;1.43;0.57;;;11.30;97.20;;;;;;5467141;26;21115;-49
2024/04/20 05:31:42;;;;;;;1.13;0.80;;;11.30;97.30;;;;;;5468549;26;20462;-52
2024/04/20 05:34:12;;;;;;;1.30;0.60;;;11.30;97.30;;;;;;5463380;26;20469;-48
2024/04/20 05:36:47;;;;;;;2.60;1.70;;;11.30;97.40;;;;;;5460744;26;20467;-52
2024/04/20 05:39:18;;;;;;;1.57;0.80;;;11.30;97.30;;;;;;5438633;26;21099;-47
2024/04/20 05:41:48;;;;;;;1.30;0.70;;;11.30;97.40;;;;;;5469039;26;20473;-47
2024/04/20 05:44:24;;;;;;;1.00;0.77;;;11.30;97.40;;;;;;5458136;26;20572;-48
2024/04/20 05:46:54;;;;;;;1.70;0.80;;;11.30;97.50;;;;;;5458330;26;20547;-48
2024/04/20 05:49:25;;;;;;;1.67;0.83;;;11.30;97.60;;;;;;5467857;26;20462;-47
2024/04/20 05:51:55;;;;;;;1.17;0.80;;;11.30;97.60;;;;;;5475983;26;21157;-47
2024/04/20 05:54:25;;;;;;;1.57;0.70;;;11.30;97.50;;;;;;5463807;26;21010;-47
2024/04/20 05:56:55;;;;;;;4.10;0.90;;;11.30;97.60;;;;;;5463046;26;20564;-48
2024/04/20 05:59:28;;;;;;;2.40;0.53;;;11.30;97.60;;;;;;5467080;26;20565;-47
2024/04/20 06:01:58;;;;;;;1.30;0.73;;;11.30;97.50;;;;;;5467248;26;20446;-48
2024/04/20 06:04:28;;;;;;;1.07;0.60;;;11.30;97.70;;;;;;5476442;26;20872;-47
2024/04/20 06:06:58;;;;;;;1.20;0.70;;;11.30;97.60;;;;;;5473581;26;21082;-47
2024/04/20 06:09:28;;;;;;;1.20;0.70;;;11.30;97.70;;;;;;5471784;26;20517;-47
2024/04/20 06:11:58;;;;;;;1.70;1.20;;;11.30;97.80;;;;;;5459083;26;20458;-48
2024/04/20 06:14:31;;;;;;;1.30;0.60;;;11.30;97.90;;;;;;5462488;26;21028;-47
2024/04/20 06:17:01;;;;;;;1.40;0.80;;;11.30;98.00;;;;;;5464526;26;20517;-47
2024/04/20 06:19:31;;;;;;;1.83;1.10;;;11.20;98.00;;;;;;5470750;25;20518;-49
2024/04/20 06:22:01;;;;;;;2.00;0.70;;;11.30;98.20;;;;;;5470059;26;20534;-49
2024/04/20 06:24:31;;;;;;;1.50;0.73;;;11.20;98.30;;;;;;5468166;26;20529;-49
2024/04/20 06:27:01;;;;;;;1.13;0.50;;;11.20;98.30;;;;;;5456369;26;20460;-48
2024/04/20 06:29:34;;;;;;;1.07;0.50;;;11.20;98.40;;;;;;5466470;26;21021;-48
2024/04/20 06:32:04;;;;;;;1.40;0.70;;;11.30;98.70;;;;;;5463458;26;20473;-49
2024/04/20 06:34:34;;;;;;;1.87;0.97;;;11.20;98.70;;;;;;5475761;26;20466;-48
2024/04/20 06:37:06;;;;;;;1.20;0.60;;;11.20;98.70;;;;;;5466480;26;20912;-48
2024/04/20 06:39:36;;;;;;;1.40;0.73;;;11.20;98.90;;;;;;5453797;26;20519;-47
2024/04/20 06:42:06;;;;;;;1.20;0.77;;;11.30;98.80;;;;;;5473631;26;20457;-49
2024/04/20 06:44:39;;;;;;;2.00;0.73;;;11.20;99.20;;;;;;5457248;26;20575;-50
2024/04/20 06:47:09;;;;;;;1.13;0.70;;;11.20;99.50;;;;;;5474954;26;20461;-47
2024/04/20 06:49:39;;;;;;;1.20;0.80;;;11.20;99.60;;;;;;5467352;26;20520;-48
2024/04/20 06:52:10;;;;;;;1.97;0.67;;;11.20;99.90;;;;;;5465378;26;20467;-47
2024/04/20 06:54:42;;;;;;;1.20;0.70;;;11.20;99.90;;;;;;5461654;26;21030;-48
2024/04/20 06:57:12;;;;;;;1.40;0.80;;;11.20;99.90;;;;;;5459849;26;21086;-47
2024/04/20 06:59:44;;;;;;;0.90;0.60;;;11.20;99.90;;;;;;5459178;26;20836;-47
2024/04/20 07:02:15;;;;;;;2.13;0.80;;;11.20;99.90;;;;;;5460779;26;20628;-48
2024/04/20 07:04:46;;;;;;;1.47;0.77;;;11.20;99.90;;;;;;5466095;26;20507;-48
2024/04/20 07:07:16;;;;;;;1.80;0.70;;;11.20;99.90;;;;;;5465431;26;20562;-48
2024/04/20 07:09:49;;;;;;;1.10;0.60;;;11.20;99.90;;;;;;5456711;26;20583;-49
2024/04/20 07:12:21;;;;;;;1.67;0.90;;;11.20;99.90;;;;;;5473650;26;20470;-48
2024/04/20 07:14:54;;;;;;;4.50;1.17;;;11.20;99.90;;;;;;5456925;26;20541;-49
2024/04/20 07:17:24;;;;;;;4.23;2.20;;;11.10;99.90;;;;;;5462318;26;20856;-47
2024/04/20 07:19:57;;;;;;;5.63;2.13;;;;;;;;;;5474449;26;20473;-48
2024/04/20 07:22:27;;;;;;;6.00;1.57;;;;;;;;;;5476408;26;20618;-48
2024/04/20 07:24:59;;;;;;;4.93;1.37;;;;;;;;;;5471092;26;20463;-49
2024/04/20 07:27:30;;;;;;;3.70;1.70;;;;;;;;;;5460889;26;20454;-47
2024/04/20 07:30:04;;;;;;;5.27;1.13;;;;;;;;;;5472535;26;20471;-47
2024/04/20 07:32:35;;;;;;;3.43;1.33;;;;;;;;;;5458437;26;21123;-48
2024/04/20 07:35:05;;;;;;;3.20;1.40;;;;;;;;;;5476920;26;20482;-48
2024/04/20 07:37:36;;;;;;;6.03;1.20;;;;;;;;;;5474876;26;20459;-47
2024/04/20 07:40:07;;;;;;;2.93;1.37;;;;;;;;;;5467002;26;20469;-48
2024/04/20 07:42:38;;;;;;;2.83;1.20;;;;;;;;;;5460286;26;20465;-48
2024/04/20 07:45:11;;;;;;;4.07;1.40;;;;;;;;;;5466343;26;20823;-47
2024/04/20 07:47:41;;;;;;;4.03;1.23;;;;;;;;;;5462778;26;20468;-48
2024/04/20 07:50:14;;;;;;;2.90;1.10;;;;;;;;;;5462780;26;20539;-48
2024/04/20 07:52:47;;;;;;;4.90;1.30;;;;;;;;;;5475429;26;20511;-51
2024/04/20 07:55:18;;;;;;;1.70;1.30;;;;;;;;;;5462378;26;20600;-48
2024/04/20 07:57:49;;;;;;;3.40;0.90;;;;;;;;;;5463145;26;20455;-47
2024/04/20 08:00:23;;;;;;;3.83;1.20;;;;;;;;;;5466834;26;20472;-48
2024/04/20 08:02:54;;;;;;;4.00;1.40;;;;;;;;;;5476868;26;20504;-50
2024/04/20 08:05:24;;;;;;;2.10;1.10;;;;;;;;;;5462932;26;20533;-48
2024/04/20 08:07:55;;;;;;;1.40;0.77;;;;;;;;;;5470647;26;20548;-48
2024/04/20 08:10:25;;;;;;;4.17;1.20;;;;;;;;;;5463903;26;20466;-48
2024/04/20 08:12:56;;;;;;;4.00;1.30;;;;;;;;;;5464423;26;20556;-48
2024/04/20 08:15:29;;;;;;;1.73;0.90;;;;;;;;;;5460973;26;21055;-47
2024/04/20 08:18:00;;;;;;;2.67;1.20;;;;;;;;;;5460593;26;20517;-50
2024/04/20 08:20:30;;;;;;;1.70;0.90;;;;;;;;;;5462624;26;20455;-49
2024/04/20 08:23:01;;;;;;;3.73;1.20;;;;;;;;;;5457253;26;20479;-48
2024/04/20 08:25:31;;;;;;;2.03;0.80;;;;;;;;;;5473968;26;20516;-47
2024/04/20 08:28:01;;;;;;;2.30;1.47;;;;;;;;;;5482738;26;20468;-47
2024/04/20 08:30:34;;;;;;;2.10;0.97;;;;;;;;;;5465520;26;20470;-47
2024/04/20 08:33:05;;;;;;;3.13;1.07;;;;;;;;;;5467429;26;20901;-48
2024/04/20 08:35:35;;;;;;;2.97;0.83;;;;;;;;;;5464289;26;20452;-47
2024/04/20 08:38:08;;;;;;;2.10;1.03;;;;;;;;;;5457661;26;20876;-49
2024/04/20 08:40:40;;;;;;;2.60;0.90;;;;;;;;;;5481070;26;20802;-48
2024/04/20 08:43:11;;;;;;;3.90;1.07;;;;;;;;;;5433365;26;20465;-48
2024/04/20 08:45:45;;;;;;;2.73;1.90;;;;;;;;;;5465654;26;20452;-49
2024/04/20 08:48:15;;;;;;;2.10;0.87;;;;;;;;;;5469586;26;20865;-48
2024/04/20 08:50:47;;;;;;;1.90;0.70;;;;;;;;;;5466959;26;20512;-47
2024/04/20 08:53:17;;;;;;;2.23;0.90;;;;;;;;;;5465203;26;20467;-49
2024/04/20 08:55:49;;;;;;;1.67;0.67;;;;;;;;;;5465355;26;20517;-49
2024/04/20 08:58:20;;;;;;;3.80;0.90;;;;;;;;;;5454989;25;20462;-46
2024/04/20 09:00:54;;;;;;;4.10;1.37;;;;;;;;;;5423182;26;20471;-48
2024/04/20 09:03:25;;;;;;;3.03;1.23;;;;;;;;;;5455854;26;20567;-47
2024/04/20 09:05:56;;;;;;;7.23;1.20;;;;;;;;;;5463689;26;20796;-47
2024/04/20 09:08:28;;;;;;;2.37;0.90;;;;;;;;;;5474609;26;20461;-47
2024/04/20 09:10:58;;;;;;;4.80;0.90;;;;;;;;;;5476362;26;20476;-47
2024/04/20 09:13:30;;;;;;;2.00;0.90;;;;;;;;;;5453974;26;20593;-50
2024/04/20 09:16:05;;;;;;;1.93;0.90;;;;;;;;;;5468416;26;20550;-46
2024/04/20 09:18:38;;;;;;;1.93;0.90;;;;;;;;;;5460107;25;20529;-47
2024/04/20 09:21:08;;;;;;;1.83;1.20;;;;;;;;;;5468148;26;20590;-47
2024/04/20 09:23:41;;;;;;;2.97;1.20;;;;;;;;;;5472952;25;20579;-46
2024/04/20 09:26:12;;;;;;;4.77;1.50;;;;;;;;;;5474730;26;20467;-47
2024/04/20 09:28:47;;;;;;;2.70;0.80;;;;;;;;;;5473366;26;20455;-46
2024/04/20 09:31:20;;;;;;;2.50;1.20;;;;;;;;;;5475452;26;20529;-46
2024/04/20 09:33:50;;;;;;;4.03;0.70;;;;;;;;;;5471845;26;20478;-46
2024/04/20 09:36:22;;;;;;;2.70;0.73;;;;;;;;;;5463215;26;21100;-49
2024/04/20 09:38:53;;;;;;;2.07;0.70;;;;;;;;;;5462325;26;20491;-46
2024/04/20 09:41:25;;;;;;;5.80;1.17;;;;;;;;;;5472375;26;21016;-46
2024/04/20 09:43:59;;;;;;;2.20;0.93;;;;;;;;;;5470347;26;20518;-47
2024/04/20 09:46:36;;;;;;;7.30;1.60;;;;;;;;;;5465349;26;20462;-46
2024/04/20 09:49:09;;;;;;;4.87;0.90;;;;;;;;;;5464483;26;20465;-47
2024/04/20 09:51:42;;;;;;;2.70;1.90;;;;;;;;;;5457855;26;20525;-48
2024/04/20 09:54:15;;;;;;;4.20;0.77;;;;;;;;;;5466461;25;20456;-49
2024/04/20 09:56:45;;;;;;;4.30;1.47;;;;;;;;;;5482675;26;21056;-47
2024/04/20 09:59:16;;;;;;;4.77;1.23;;;;;;;;;;5466358;26;20798;-48
2024/04/20 10:01:51;;;;;;;3.70;1.60;;;;;;;;;;5451718;26;20527;-48
2024/04/20 10:04:26;;;;;;;2.43;1.10;;;;;;;;;;5464299;26;20576;-47
2024/04/20 10:06:59;;;;;;;8.00;1.20;;;;;;;;;;5471041;26;20456;-47
2024/04/20 10:09:29;;;;;;;5.73;1.33;;;;;;;;;;5468993;26;20458;-47
2024/04/20 10:12:00;;;;;;;4.20;1.40;;;;;;;;;;5474912;26;20457;-47
2024/04/20 10:14:31;;;;;;;2.90;1.20;;;;;;;;;;5456672;26;20524;-48
2024/04/20 10:17:04;;;;;;;4.03;1.67;;;;;;;;;;5468290;25;20643;-47
2024/04/20 10:19:44;;;;;;;3.03;1.53;;;;;;;;;;5454223;26;20540;-46
2024/04/20 10:22:15;;;;;;;5.70;1.27;;;;;;;;;;5461069;26;20800;-46
2024/04/20 10:24:56;;;;;;;8.53;1.63;;;;;;;;;;5475739;26;20793;-50
2024/04/20 10:27:28;;;;;;;3.50;1.10;;;;;;;;;;5461701;26;20522;-47
2024/04/20 10:30:12;;;;;;;6.73;1.07;;;;;;;;;;5467913;26;20540;-48
2024/04/20 10:32:48;;;;;;;3.83;1.00;;;;;;;;;;5467648;26;21031;-47
2024/04/20 10:35:21;;;;;;;3.57;1.87;;;;;;;;;;5461214;26;20550;-48
2024/04/20 10:38:01;;;;;;;4.90;1.00;;;;;;;;;;5462458;26;20451;-47
2024/04/20 10:40:32;;;;;;;4.53;1.00;;;;;;;;;;5465997;26;21037;-47
2024/04/20 10:43:13;;;;;;;3.83;1.30;;;;;;;;;;5475086;26;20531;-47
2024/04/20 10:45:44;;;;;;;2.30;0.93;;;;;;;;;;5471811;26;20469;-47
2024/04/20 10:48:18;;;;;;;3.03;1.37;;;;;;;;;;5458670;26;20552;-48
2024/04/20 10:50:48;;;;;;;3.90;1.10;;;;;;;;;;5463921;26;20523;-50
2024/04/20 10:53:23;;;;;;;4.13;0.90;;;;;;;;;;5458231;26;20461;-49
2024/04/20 10:55:58;;;;;;;6.33;0.90;;;11.00;90.60;;;;;;5472695;26;20451;-47
2024/04/20 10:58:30;;;;;;;6.53;1.03;;;11.00;91.10;;;;;;5459153;26;20455;-51
2024/04/20 11:01:01;;;;;;;5.00;1.10;;;11.00;91.10;;;;;;5473835;25;20515;-47
2024/04/20 11:03:36;;;;;;;2.60;0.80;;;11.00;91.10;;;;;;5470354;26;20468;-47
2024/04/20 11:06:08;;;;;;;4.27;1.37;;;11.00;91.20;;;;;;5478610;26;20442;-48
2024/04/20 11:08:43;;;;;;;2.43;0.90;;;11.00;91.30;;;;;;5461935;26;20454;-49
2024/04/20 11:11:14;;;;;;;3.40;0.67;;;11.00;91.30;;;;;;5481701;26;20573;-47
2024/04/20 11:13:45;;;;;;;5.50;0.83;;;11.00;91.30;;;;;;5467084;26;21134;-46
2024/04/20 11:16:18;;;;;;;3.00;1.00;;;11.00;91.30;;;;;;5472839;26;21138;-48
2024/04/20 11:18:51;;;;;;;3.33;1.20;;;11.00;91.40;;;;;;5462694;26;20474;-47
2024/04/20 11:21:22;;;;;;;2.30;0.93;;;11.00;91.30;;;;;;5461548;26;20872;-49
2024/04/20 11:23:54;;;;;;;5.80;0.90;;;11.00;91.40;;;;;;5471627;26;20577;-51
2024/04/20 11:26:25;;;;;;;2.70;0.87;;;11.00;91.30;;;;;;5470542;26;20468;-48
2024/04/20 11:28:56;;;;;;;1.80;0.67;;;11.00;91.30;;;;;;5478221;26;20497;-49
2024/04/20 11:31:26;;;;;;;2.27;0.87;;;11.00;91.80;;;;;;5472441;26;20488;-47
2024/04/20 11:33:59;;;;;;;4.60;1.47;;;11.00;91.30;;;;;;5471887;26;20468;-46
2024/04/20 11:36:30;;;;;;;3.93;0.97;;;11.00;91.30;;;;;;5452746;26;20445;-47
2024/04/20 11:39:11;;;;;;;1.63;0.90;;;11.00;91.40;;;;;;5468536;26;20512;-48
2024/04/20 11:41:41;;;;;;;1.33;0.77;;;11.00;91.30;;;;;;5451102;26;20546;-47
2024/04/20 11:44:15;;;;;;;2.33;0.80;;;11.00;91.40;;;;;;5455620;26;20472;-49
2024/04/20 11:46:47;;;;;;;2.10;0.90;;;11.00;91.40;;;;;;5477597;26;20460;-49
2024/04/20 11:49:20;;;;;;;2.80;0.70;;;11.00;91.30;;;;;;5459974;26;21083;-48
2024/04/20 11:54:48;;;;;;;1.07;0.60;;;11.00;91.40;;;;;;5463565;26;20508;-46
2024/04/20 11:57:19;;;;;;;1.27;0.67;;;11.00;91.40;;;;;;5471795;26;20455;-48
2024/04/20 11:59:49;;;;;;;2.50;0.73;;;11.00;91.40;;;;;;5468548;26;20470;-51
2024/04/20 12:02:19;;;;;;;2.50;0.93;;;11.00;91.30;;;;;;5428202;26;20517;-47
2024/04/20 12:04:53;;;;;;;2.60;0.77;;;11.00;91.60;;;;;;5467595;26;20876;-48
2024/04/20 12:07:23;;;;;;;1.70;0.90;;;11.00;91.50;;;;;;5457788;26;20455;-49
2024/04/20 12:09:53;;;;;;;1.57;1.00;;;11.00;91.50;;;;;;5465764;26;20456;-48
2024/04/20 12:12:24;;;;;;;1.83;0.60;;;11.00;91.50;;;;;;5465249;26;20510;-47
2024/04/20 12:14:53;;;;;;;5.73;1.13;;;11.00;91.50;;;;;;5466206;26;20570;-47
2024/04/20 12:17:23;;;;;;;1.30;0.70;;;11.10;91.60;;;;;;5478575;26;21123;-49
2024/04/20 12:19:56;;;;;;;1.93;0.83;;;11.00;91.50;;;;;;5468078;26;20575;-49
2024/04/20 12:22:27;;;;;;;2.17;0.70;;;11.00;91.50;;;;;;5473255;26;21038;-47
2024/04/20 12:24:57;;;;;;;2.67;0.73;;;11.00;91.50;;;;;;5471292;26;20573;-47
2024/04/20 12:27:29;;;;;;;3.03;0.90;;;11.00;91.50;;;;;;5457573;26;20536;-48
2024/04/20 12:30:00;;;;;;;2.63;0.70;;;11.00;91.50;;;;;;5475008;26;20477;-51
2024/04/20 12:32:31;;;;;;;1.40;0.60;;;11.00;91.50;;;;;;5467459;26;20492;-49
2024/04/20 12:35:04;;;;;;;1.70;0.63;;;11.00;91.50;;;;;;5475508;26;20560;-48
2024/04/20 12:37:34;;;;;;;1.67;0.83;;;11.00;91.40;;;;;;5466960;26;20826;-47
2024/04/20 12:40:02;;;;;;;1.87;0.80;;;11.00;91.40;;;;;;5470393;26;20517;-47
2024/04/20 12:42:32;;;;;;;1.63;0.70;;;11.00;91.40;;;;;;5474489;26;20450;-47
2024/04/20 12:45:02;;;;;;;2.20;0.73;;;11.00;91.40;;;;;;5461685;26;20455;-47
2024/04/20 12:47:34;;;;;;;9.30;1.13;;;11.00;91.40;;;;;;5461607;26;20574;-48
2024/04/20 12:50:07;;;;;;;2.30;0.73;;;11.00;91.50;;;;;;5484623;26;20573;-50
2024/04/20 12:52:37;;;;;;;1.43;0.57;;;11.00;91.60;;;;;;5463297;26;20498;-47
2024/04/20 12:55:09;;;;;;;1.40;0.60;;;11.00;91.60;;;;;;5470134;26;20519;-47
2024/04/20 12:57:39;;;;;;;2.53;0.77;;;11.00;91.50;;;;;;5466830;26;20500;-47
2024/04/20 13:00:10;;;;;;;4.80;0.80;;;11.00;91.60;;;;;;5447391;26;20471;-48
2024/04/20 13:02:40;;;;;;;2.50;1.13;;;11.00;91.50;;;;;;5441476;26;20462;-46
2024/04/20 13:05:13;;;;;;;1.30;0.90;;;11.00;91.00;;;;;;5475337;26;20462;-48
2024/04/20 13:07:43;;;;;;;3.60;0.70;;;11.00;91.20;;;;;;5465894;26;20572;-47
2024/04/20 13:10:13;;;;;;;2.27;1.83;;;11.00;91.30;;;;;;5471847;25;20524;-48
2024/04/20 13:12:43;;;;;;;2.63;0.77;;;11.00;91.30;;;;;;5459831;26;20853;-47
2024/04/20 13:15:15;;;;;;;1.70;0.60;;;11.10;91.40;;;;;;5451982;26;21024;-47
2024/04/20 13:17:45;;;;;;;1.80;0.77;;;11.00;91.40;;;;;;5460262;26;20466;-48
2024/04/20 13:20:18;;;;;;;1.30;0.70;;;11.10;91.30;;;;;;5465719;26;20462;-48
2024/04/20 13:22:48;;;;;;;1.80;0.80;;;11.10;91.30;;;;;;5464262;26;20502;-47
2024/04/20 13:25:18;;;;;;;2.73;0.80;;;11.00;91.30;;;;;;5474151;26;20459;-46
2024/04/20 13:27:48;;;;;;;1.90;0.80;;;11.10;91.40;;;;;;5448439;26;20459;-47
2024/04/20 13:30:18;;;;;;;1.30;0.73;;;11.10;91.40;;;;;;5452230;26;20577;-46
2024/04/20 13:32:50;;;;;;;6.20;0.90;;;11.10;91.30;;;;;;5489776;26;20449;-47
2024/04/20 13:35:40;;;;;;;2.60;1.00;;;11.10;91.40;;;;;;5470350;26;20510;-49
2024/04/20 13:38:10;;;;;;;2.70;0.60;;;11.00;91.30;;;;;;5461976;26;21053;-48
2024/04/20 13:40:40;;;;;;;2.83;0.77;;;11.00;91.40;;;;;;5470187;26;20458;-47